sensor_id;sensor_type;location;lat;lon;timestamp;P1;durP1;ratioP1;P2;durP2;ratioP2
22711;SDS011;11523;50.390;8.072;2024-01-06T00:02:18;4.22;;;1.65;;
22711;SDS011;11523;50.390;8.072;2024-01-06T00:04:44;3.92;;;1.45;;
22711;SDS011;11523;50.390;8.072;2024-01-06T00:07:10;3.72;;;1.48;;
22711;SDS011;11523;50.390;8.072;2024-01-06T00:09:36;2.90;;;1.60;;
22711;SDS011;11523;50.390;8.072;2024-01-06T00:12:02;5.05;;;1.90;;
22711;SDS011;11523;50.390;8.072;2024-01-06T00:14:28;3.17;;;1.65;;
22711;SDS011;11523;50.390;8.072;2024-01-06T00:16:53;5.18;;;1.75;;
22711;SDS011;11523;50.390;8.072;2024-01-06T00:19:19;5.30;;;1.63;;
22711;SDS011;11523;50.390;8.072;2024-01-06T00:21:45;4.07;;;1.55;;
22711;SDS011;11523;50.390;8.072;2024-01-06T00:24:11;6.85;;;1.73;;
22711;SDS011;11523;50.390;8.072;2024-01-06T00:26:37;2.75;;;1.70;;
22711;SDS011;11523;50.390;8.072;2024-01-06T00:29:03;3.30;;;1.48;;
22711;SDS011;11523;50.390;8.072;2024-01-06T00:31:29;5.78;;;1.80;;
22711;SDS011;11523;50.390;8.072;2024-01-06T00:33:55;6.75;;;1.50;;
22711;SDS011;11523;50.390;8.072;2024-01-06T00:36:21;2.03;;;1.42;;
22711;SDS011;11523;50.390;8.072;2024-01-06T00:38:47;3.47;;;1.40;;
22711;SDS011;11523;50.390;8.072;2024-01-06T00:41:13;3.90;;;1.88;;
22711;SDS011;11523;50.390;8.072;2024-01-06T00:43:40;4.05;;;1.52;;
22711;SDS011;11523;50.390;8.072;2024-01-06T00:46:06;5.00;;;1.75;;
22711;SDS011;11523;50.390;8.072;2024-01-06T00:48:31;3.85;;;1.48;;
22711;SDS011;11523;50.390;8.072;2024-01-06T00:50:57;3.40;;;1.38;;
22711;SDS011;11523;50.390;8.072;2024-01-06T00:53:23;5.47;;;1.60;;
22711;SDS011;11523;50.390;8.072;2024-01-06T00:55:49;7.00;;;1.48;;
22711;SDS011;11523;50.390;8.072;2024-01-06T00:58:15;3.92;;;1.30;;
22711;SDS011;11523;50.390;8.072;2024-01-06T01:00:41;3.80;;;1.30;;
22711;SDS011;11523;50.390;8.072;2024-01-06T01:03:07;5.40;;;1.80;;
22711;SDS011;11523;50.390;8.072;2024-01-06T01:05:33;3.42;;;1.60;;
22711;SDS011;11523;50.390;8.072;2024-01-06T01:07:59;5.00;;;1.40;;
22711;SDS011;11523;50.390;8.072;2024-01-06T01:10:25;4.88;;;1.55;;
22711;SDS011;11523;50.390;8.072;2024-01-06T01:12:51;3.35;;;1.45;;
22711;SDS011;11523;50.390;8.072;2024-01-06T01:15:17;3.25;;;1.60;;
22711;SDS011;11523;50.390;8.072;2024-01-06T01:17:43;3.85;;;1.33;;
22711;SDS011;11523;50.390;8.072;2024-01-06T01:20:09;2.75;;;1.50;;
22711;SDS011;11523;50.390;8.072;2024-01-06T01:22:35;3.53;;;1.70;;
22711;SDS011;11523;50.390;8.072;2024-01-06T01:25:01;1.92;;;1.20;;
22711;SDS011;11523;50.390;8.072;2024-01-06T01:27:32;4.07;;;1.40;;
22711;SDS011;11523;50.390;8.072;2024-01-06T01:29:58;6.93;;;1.77;;
22711;SDS011;11523;50.390;8.072;2024-01-06T01:32:24;3.10;;;1.45;;
22711;SDS011;11523;50.390;8.072;2024-01-06T01:34:50;4.60;;;1.45;;
22711;SDS011;11523;50.390;8.072;2024-01-06T01:37:16;3.10;;;1.38;;
22711;SDS011;11523;50.390;8.072;2024-01-06T01:39:42;4.88;;;1.90;;
22711;SDS011;11523;50.390;8.072;2024-01-06T01:42:07;3.25;;;1.60;;
22711;SDS011;11523;50.390;8.072;2024-01-06T01:44:33;5.57;;;1.45;;
22711;SDS011;11523;50.390;8.072;2024-01-06T01:46:59;4.15;;;1.60;;
22711;SDS011;11523;50.390;8.072;2024-01-06T01:49:25;3.65;;;1.55;;
22711;SDS011;11523;50.390;8.072;2024-01-06T01:51:52;6.63;;;1.67;;
22711;SDS011;11523;50.390;8.072;2024-01-06T01:54:18;6.05;;;1.80;;
22711;SDS011;11523;50.390;8.072;2024-01-06T01:56:44;4.68;;;1.65;;
22711;SDS011;11523;50.390;8.072;2024-01-06T01:59:13;4.57;;;1.60;;
22711;SDS011;11523;50.390;8.072;2024-01-06T02:01:39;2.78;;;1.25;;
22711;SDS011;11523;50.390;8.072;2024-01-06T02:04:06;3.55;;;1.70;;
22711;SDS011;11523;50.390;8.072;2024-01-06T02:06:32;4.47;;;1.80;;
22711;SDS011;11523;50.390;8.072;2024-01-06T02:08:58;3.08;;;1.25;;
22711;SDS011;11523;50.390;8.072;2024-01-06T02:11:24;3.80;;;1.60;;
22711;SDS011;11523;50.390;8.072;2024-01-06T02:13:50;3.58;;;1.45;;
22711;SDS011;11523;50.390;8.072;2024-01-06T02:16:16;5.15;;;1.45;;
22711;SDS011;11523;50.390;8.072;2024-01-06T02:18:41;4.03;;;1.50;;
22711;SDS011;11523;50.390;8.072;2024-01-06T02:21:07;4.95;;;1.70;;
22711;SDS011;11523;50.390;8.072;2024-01-06T02:23:34;5.05;;;1.80;;
22711;SDS011;11523;50.390;8.072;2024-01-06T02:26:01;3.65;;;1.52;;
22711;SDS011;11523;50.390;8.072;2024-01-06T02:28:27;5.75;;;1.55;;
22711;SDS011;11523;50.390;8.072;2024-01-06T02:30:53;3.35;;;1.52;;
22711;SDS011;11523;50.390;8.072;2024-01-06T02:33:19;2.85;;;1.42;;
22711;SDS011;11523;50.390;8.072;2024-01-06T02:35:45;3.83;;;1.25;;
22711;SDS011;11523;50.390;8.072;2024-01-06T02:38:11;2.85;;;1.55;;
22711;SDS011;11523;50.390;8.072;2024-01-06T02:40:37;4.72;;;1.60;;
22711;SDS011;11523;50.390;8.072;2024-01-06T02:43:03;3.78;;;1.80;;
22711;SDS011;11523;50.390;8.072;2024-01-06T02:45:29;5.50;;;1.60;;
22711;SDS011;11523;50.390;8.072;2024-01-06T02:48:03;4.97;;;1.35;;
22711;SDS011;11523;50.390;8.072;2024-01-06T02:50:36;4.50;;;1.80;;
22711;SDS011;11523;50.390;8.072;2024-01-06T02:53:08;5.35;;;1.75;;
22711;SDS011;11523;50.390;8.072;2024-01-06T02:55:34;3.05;;;1.85;;
22711;SDS011;11523;50.390;8.072;2024-01-06T02:58:00;2.97;;;1.40;;
22711;SDS011;11523;50.390;8.072;2024-01-06T03:00:26;3.70;;;1.48;;
22711;SDS011;11523;50.390;8.072;2024-01-06T03:02:52;3.35;;;1.40;;
22711;SDS011;11523;50.390;8.072;2024-01-06T03:05:18;2.33;;;1.48;;
22711;SDS011;11523;50.390;8.072;2024-01-06T03:07:44;3.60;;;1.65;;
22711;SDS011;11523;50.390;8.072;2024-01-06T03:10:10;4.72;;;1.35;;
22711;SDS011;11523;50.390;8.072;2024-01-06T03:12:36;4.35;;;1.70;;
22711;SDS011;11523;50.390;8.072;2024-01-06T03:15:02;2.35;;;1.30;;
22711;SDS011;11523;50.390;8.072;2024-01-06T03:17:28;2.40;;;1.50;;
22711;SDS011;11523;50.390;8.072;2024-01-06T03:19:54;2.97;;;1.67;;
22711;SDS011;11523;50.390;8.072;2024-01-06T03:22:20;5.28;;;1.67;;
22711;SDS011;11523;50.390;8.072;2024-01-06T03:24:46;3.03;;;1.65;;
22711;SDS011;11523;50.390;8.072;2024-01-06T03:27:12;5.22;;;1.90;;
22711;SDS011;11523;50.390;8.072;2024-01-06T03:29:38;4.78;;;1.58;;
22711;SDS011;11523;50.390;8.072;2024-01-06T03:32:05;3.33;;;1.80;;
22711;SDS011;11523;50.390;8.072;2024-01-06T03:34:31;3.90;;;1.73;;
22711;SDS011;11523;50.390;8.072;2024-01-06T03:36:57;4.20;;;2.13;;
22711;SDS011;11523;50.390;8.072;2024-01-06T03:39:22;5.22;;;1.52;;
22711;SDS011;11523;50.390;8.072;2024-01-06T03:41:48;4.28;;;2.00;;
22711;SDS011;11523;50.390;8.072;2024-01-06T03:44:14;5.38;;;1.83;;
22711;SDS011;11523;50.390;8.072;2024-01-06T03:46:40;4.32;;;1.80;;
22711;SDS011;11523;50.390;8.072;2024-01-06T03:49:06;2.28;;;1.60;;
22711;SDS011;11523;50.390;8.072;2024-01-06T03:51:32;4.85;;;1.75;;
22711;SDS011;11523;50.390;8.072;2024-01-06T03:53:58;3.60;;;1.40;;
22711;SDS011;11523;50.390;8.072;2024-01-06T03:56:24;4.05;;;1.70;;
22711;SDS011;11523;50.390;8.072;2024-01-06T03:58:50;4.60;;;1.70;;
22711;SDS011;11523;50.390;8.072;2024-01-06T04:01:16;5.60;;;1.77;;
22711;SDS011;11523;50.390;8.072;2024-01-06T04:03:42;3.13;;;1.88;;
22711;SDS011;11523;50.390;8.072;2024-01-06T04:06:08;4.25;;;1.55;;
22711;SDS011;11523;50.390;8.072;2024-01-06T04:08:35;3.10;;;1.60;;
22711;SDS011;11523;50.390;8.072;2024-01-06T04:11:01;3.55;;;1.70;;
22711;SDS011;11523;50.390;8.072;2024-01-06T04:13:27;3.70;;;1.58;;
22711;SDS011;11523;50.390;8.072;2024-01-06T04:15:53;1.90;;;1.55;;
22711;SDS011;11523;50.390;8.072;2024-01-06T04:18:20;2.95;;;1.50;;
22711;SDS011;11523;50.390;8.072;2024-01-06T04:20:46;2.63;;;1.50;;
22711;SDS011;11523;50.390;8.072;2024-01-06T04:23:11;2.35;;;1.60;;
22711;SDS011;11523;50.390;8.072;2024-01-06T04:25:37;4.28;;;1.90;;
22711;SDS011;11523;50.390;8.072;2024-01-06T04:28:04;3.90;;;1.90;;
22711;SDS011;11523;50.390;8.072;2024-01-06T04:30:30;5.82;;;2.22;;
22711;SDS011;11523;50.390;8.072;2024-01-06T04:32:55;3.60;;;2.03;;
22711;SDS011;11523;50.390;8.072;2024-01-06T04:35:22;4.30;;;1.73;;
22711;SDS011;11523;50.390;8.072;2024-01-06T04:37:48;2.95;;;1.45;;
22711;SDS011;11523;50.390;8.072;2024-01-06T04:40:21;2.72;;;1.80;;
22711;SDS011;11523;50.390;8.072;2024-01-06T04:42:46;5.25;;;1.98;;
22711;SDS011;11523;50.390;8.072;2024-01-06T04:45:12;3.40;;;2.40;;
22711;SDS011;11523;50.390;8.072;2024-01-06T04:47:38;2.63;;;1.60;;
22711;SDS011;11523;50.390;8.072;2024-01-06T04:50:04;4.65;;;2.00;;
22711;SDS011;11523;50.390;8.072;2024-01-06T04:52:31;2.47;;;1.67;;
22711;SDS011;11523;50.390;8.072;2024-01-06T04:54:57;3.90;;;1.90;;
22711;SDS011;11523;50.390;8.072;2024-01-06T04:57:23;2.92;;;1.52;;
22711;SDS011;11523;50.390;8.072;2024-01-06T04:59:49;4.72;;;1.88;;
22711;SDS011;11523;50.390;8.072;2024-01-06T05:02:15;9.63;;;2.10;;
22711;SDS011;11523;50.390;8.072;2024-01-06T05:04:41;1.92;;;1.77;;
22711;SDS011;11523;50.390;8.072;2024-01-06T05:07:14;6.25;;;2.05;;
22711;SDS011;11523;50.390;8.072;2024-01-06T05:09:40;3.45;;;1.77;;
22711;SDS011;11523;50.390;8.072;2024-01-06T05:12:06;2.92;;;1.70;;
22711;SDS011;11523;50.390;8.072;2024-01-06T05:14:32;5.45;;;2.03;;
22711;SDS011;11523;50.390;8.072;2024-01-06T05:16:58;3.15;;;1.80;;
22711;SDS011;11523;50.390;8.072;2024-01-06T05:19:24;4.00;;;1.83;;
22711;SDS011;11523;50.390;8.072;2024-01-06T05:21:50;3.58;;;2.00;;
22711;SDS011;11523;50.390;8.072;2024-01-06T05:24:16;5.85;;;2.22;;
22711;SDS011;11523;50.390;8.072;2024-01-06T05:26:41;4.70;;;2.35;;
22711;SDS011;11523;50.390;8.072;2024-01-06T05:29:07;4.88;;;1.73;;
22711;SDS011;11523;50.390;8.072;2024-01-06T05:31:33;4.03;;;2.00;;
22711;SDS011;11523;50.390;8.072;2024-01-06T05:33:59;3.63;;;1.83;;
22711;SDS011;11523;50.390;8.072;2024-01-06T05:36:25;3.95;;;1.83;;
22711;SDS011;11523;50.390;8.072;2024-01-06T05:38:51;5.30;;;2.13;;
22711;SDS011;11523;50.390;8.072;2024-01-06T05:41:17;2.17;;;1.70;;
22711;SDS011;11523;50.390;8.072;2024-01-06T05:43:43;2.40;;;1.83;;
22711;SDS011;11523;50.390;8.072;2024-01-06T05:46:09;2.33;;;1.80;;
22711;SDS011;11523;50.390;8.072;2024-01-06T05:48:42;4.60;;;1.95;;
22711;SDS011;11523;50.390;8.072;2024-01-06T05:51:09;4.65;;;1.60;;
22711;SDS011;11523;50.390;8.072;2024-01-06T05:53:35;2.75;;;1.73;;
22711;SDS011;11523;50.390;8.072;2024-01-06T05:56:01;2.85;;;1.60;;
22711;SDS011;11523;50.390;8.072;2024-01-06T05:58:27;4.10;;;1.75;;
22711;SDS011;11523;50.390;8.072;2024-01-06T06:00:53;3.03;;;1.63;;
22711;SDS011;11523;50.390;8.072;2024-01-06T06:03:19;4.25;;;2.05;;
22711;SDS011;11523;50.390;8.072;2024-01-06T06:05:45;2.42;;;1.80;;
22711;SDS011;11523;50.390;8.072;2024-01-06T06:08:11;3.30;;;1.92;;
22711;SDS011;11523;50.390;8.072;2024-01-06T06:10:37;3.17;;;1.85;;
22711;SDS011;11523;50.390;8.072;2024-01-06T06:13:07;4.63;;;2.42;;
22711;SDS011;11523;50.390;8.072;2024-01-06T06:15:35;2.58;;;1.73;;
22711;SDS011;11523;50.390;8.072;2024-01-06T06:18:01;3.22;;;1.83;;
22711;SDS011;11523;50.390;8.072;2024-01-06T06:20:27;2.97;;;2.10;;
22711;SDS011;11523;50.390;8.072;2024-01-06T06:22:53;3.35;;;2.15;;
22711;SDS011;11523;50.390;8.072;2024-01-06T06:25:19;3.58;;;1.92;;
22711;SDS011;11523;50.390;8.072;2024-01-06T06:27:45;4.65;;;1.95;;
22711;SDS011;11523;50.390;8.072;2024-01-06T06:30:11;5.18;;;1.95;;
22711;SDS011;11523;50.390;8.072;2024-01-06T06:32:37;3.47;;;2.00;;
22711;SDS011;11523;50.390;8.072;2024-01-06T06:35:03;3.03;;;1.75;;
22711;SDS011;11523;50.390;8.072;2024-01-06T06:37:29;4.10;;;2.05;;
22711;SDS011;11523;50.390;8.072;2024-01-06T06:39:55;2.92;;;1.90;;
22711;SDS011;11523;50.390;8.072;2024-01-06T06:42:21;6.25;;;2.13;;
22711;SDS011;11523;50.390;8.072;2024-01-06T06:44:47;6.35;;;2.67;;
22711;SDS011;11523;50.390;8.072;2024-01-06T06:47:13;3.88;;;2.17;;
22711;SDS011;11523;50.390;8.072;2024-01-06T06:49:39;2.90;;;1.55;;
22711;SDS011;11523;50.390;8.072;2024-01-06T06:52:05;3.28;;;1.80;;
22711;SDS011;11523;50.390;8.072;2024-01-06T06:54:32;1.98;;;1.45;;
22711;SDS011;11523;50.390;8.072;2024-01-06T06:56:58;3.05;;;1.70;;
22711;SDS011;11523;50.390;8.072;2024-01-06T06:59:24;3.25;;;1.73;;
22711;SDS011;11523;50.390;8.072;2024-01-06T07:01:49;4.57;;;1.70;;
22711;SDS011;11523;50.390;8.072;2024-01-06T07:04:15;3.70;;;1.58;;
22711;SDS011;11523;50.390;8.072;2024-01-06T07:06:41;1.75;;;1.30;;
22711;SDS011;11523;50.390;8.072;2024-01-06T07:09:07;3.78;;;1.73;;
22711;SDS011;11523;50.390;8.072;2024-01-06T07:11:33;3.88;;;1.58;;
22711;SDS011;11523;50.390;8.072;2024-01-06T07:13:59;2.17;;;1.58;;
22711;SDS011;11523;50.390;8.072;2024-01-06T07:16:25;3.90;;;1.67;;
22711;SDS011;11523;50.390;8.072;2024-01-06T07:18:51;2.33;;;1.58;;
22711;SDS011;11523;50.390;8.072;2024-01-06T07:21:17;1.63;;;1.50;;
22711;SDS011;11523;50.390;8.072;2024-01-06T07:23:43;5.68;;;2.13;;
22711;SDS011;11523;50.390;8.072;2024-01-06T07:26:09;4.45;;;2.35;;
22711;SDS011;11523;50.390;8.072;2024-01-06T07:28:35;3.70;;;2.25;;
22711;SDS011;11523;50.390;8.072;2024-01-06T07:31:01;2.50;;;1.85;;
22711;SDS011;11523;50.390;8.072;2024-01-06T07:33:27;3.33;;;2.22;;
22711;SDS011;11523;50.390;8.072;2024-01-06T07:35:53;2.92;;;1.90;;
22711;SDS011;11523;50.390;8.072;2024-01-06T07:38:19;4.20;;;2.00;;
22711;SDS011;11523;50.390;8.072;2024-01-06T07:40:45;3.35;;;1.98;;
22711;SDS011;11523;50.390;8.072;2024-01-06T07:43:11;3.70;;;1.90;;
22711;SDS011;11523;50.390;8.072;2024-01-06T07:45:37;2.35;;;1.90;;
22711;SDS011;11523;50.390;8.072;2024-01-06T07:48:04;3.20;;;1.80;;
22711;SDS011;11523;50.390;8.072;2024-01-06T07:50:30;4.93;;;1.88;;
22711;SDS011;11523;50.390;8.072;2024-01-06T07:52:56;2.65;;;1.67;;
22711;SDS011;11523;50.390;8.072;2024-01-06T07:55:23;3.55;;;2.05;;
22711;SDS011;11523;50.390;8.072;2024-01-06T07:57:49;5.68;;;2.50;;
22711;SDS011;11523;50.390;8.072;2024-01-06T08:00:14;5.07;;;2.40;;
22711;SDS011;11523;50.390;8.072;2024-01-06T08:02:41;7.20;;;3.53;;
22711;SDS011;11523;50.390;8.072;2024-01-06T08:05:07;3.70;;;2.60;;
22711;SDS011;11523;50.390;8.072;2024-01-06T08:07:33;3.28;;;2.40;;
22711;SDS011;11523;50.390;8.072;2024-01-06T08:09:59;4.32;;;2.28;;
22711;SDS011;11523;50.390;8.072;2024-01-06T08:12:25;5.38;;;2.60;;
22711;SDS011;11523;50.390;8.072;2024-01-06T08:14:51;2.92;;;2.00;;
22711;SDS011;11523;50.390;8.072;2024-01-06T08:17:17;3.65;;;2.20;;
22711;SDS011;11523;50.390;8.072;2024-01-06T08:19:43;2.50;;;2.08;;
22711;SDS011;11523;50.390;8.072;2024-01-06T08:22:12;5.18;;;2.50;;
22711;SDS011;11523;50.390;8.072;2024-01-06T08:24:38;3.10;;;2.25;;
22711;SDS011;11523;50.390;8.072;2024-01-06T08:27:04;2.35;;;2.08;;
22711;SDS011;11523;50.390;8.072;2024-01-06T08:29:30;6.50;;;2.90;;
22711;SDS011;11523;50.390;8.072;2024-01-06T08:31:56;4.82;;;3.05;;
22711;SDS011;11523;50.390;8.072;2024-01-06T08:34:22;5.60;;;3.97;;
22711;SDS011;11523;50.390;8.072;2024-01-06T08:36:48;10.35;;;5.75;;
22711;SDS011;11523;50.390;8.072;2024-01-06T08:39:14;9.13;;;5.35;;
22711;SDS011;11523;50.390;8.072;2024-01-06T08:41:40;8.35;;;4.20;;
22711;SDS011;11523;50.390;8.072;2024-01-06T08:44:06;7.65;;;4.00;;
22711;SDS011;11523;50.390;8.072;2024-01-06T08:46:32;7.68;;;3.72;;
22711;SDS011;11523;50.390;8.072;2024-01-06T08:48:58;5.90;;;3.55;;
22711;SDS011;11523;50.390;8.072;2024-01-06T08:51:25;8.02;;;3.38;;
22711;SDS011;11523;50.390;8.072;2024-01-06T08:53:51;3.60;;;3.00;;
22711;SDS011;11523;50.390;8.072;2024-01-06T08:56:18;6.13;;;3.13;;
22711;SDS011;11523;50.390;8.072;2024-01-06T08:58:44;4.95;;;3.40;;
22711;SDS011;11523;50.390;8.072;2024-01-06T09:01:10;5.82;;;3.70;;
22711;SDS011;11523;50.390;8.072;2024-01-06T09:03:36;7.72;;;4.18;;
22711;SDS011;11523;50.390;8.072;2024-01-06T09:06:02;12.88;;;5.15;;
22711;SDS011;11523;50.390;8.072;2024-01-06T09:08:28;5.93;;;4.18;;
22711;SDS011;11523;50.390;8.072;2024-01-06T09:10:54;6.35;;;4.25;;
22711;SDS011;11523;50.390;8.072;2024-01-06T09:13:22;7.78;;;4.10;;
22711;SDS011;11523;50.390;8.072;2024-01-06T09:15:48;5.63;;;4.10;;
22711;SDS011;11523;50.390;8.072;2024-01-06T09:18:16;4.80;;;3.60;;
22711;SDS011;11523;50.390;8.072;2024-01-06T09:20:42;6.45;;;3.88;;
22711;SDS011;11523;50.390;8.072;2024-01-06T09:23:07;7.10;;;3.63;;
22711;SDS011;11523;50.390;8.072;2024-01-06T09:25:35;5.15;;;3.47;;
22711;SDS011;11523;50.390;8.072;2024-01-06T09:28:01;4.50;;;3.50;;
22711;SDS011;11523;50.390;8.072;2024-01-06T09:30:27;4.43;;;3.38;;
22711;SDS011;11523;50.390;8.072;2024-01-06T09:32:53;5.18;;;3.35;;
22711;SDS011;11523;50.390;8.072;2024-01-06T09:35:19;4.53;;;3.40;;
22711;SDS011;11523;50.390;8.072;2024-01-06T09:37:45;7.90;;;3.22;;
22711;SDS011;11523;50.390;8.072;2024-01-06T09:40:11;8.23;;;3.33;;
22711;SDS011;11523;50.390;8.072;2024-01-06T09:42:41;4.97;;;3.50;;
22711;SDS011;11523;50.390;8.072;2024-01-06T09:45:07;4.50;;;3.40;;
22711;SDS011;11523;50.390;8.072;2024-01-06T09:47:33;6.50;;;3.63;;
22711;SDS011;11523;50.390;8.072;2024-01-06T09:50:00;6.28;;;3.53;;
22711;SDS011;11523;50.390;8.072;2024-01-06T09:52:28;5.78;;;3.33;;
22711;SDS011;11523;50.390;8.072;2024-01-06T09:54:55;6.78;;;3.92;;
22711;SDS011;11523;50.390;8.072;2024-01-06T09:57:22;6.20;;;4.05;;
22711;SDS011;11523;50.390;8.072;2024-01-06T09:59:48;5.55;;;3.72;;
22711;SDS011;11523;50.390;8.072;2024-01-06T10:02:15;6.28;;;3.75;;
22711;SDS011;11523;50.390;8.072;2024-01-06T10:04:41;7.78;;;4.20;;
22711;SDS011;11523;50.390;8.072;2024-01-06T10:07:07;5.68;;;3.80;;
22711;SDS011;11523;50.390;8.072;2024-01-06T10:09:37;6.65;;;4.03;;
22711;SDS011;11523;50.390;8.072;2024-01-06T10:12:03;7.28;;;4.13;;
22711;SDS011;11523;50.390;8.072;2024-01-06T10:14:29;5.45;;;3.97;;
22711;SDS011;11523;50.390;8.072;2024-01-06T10:16:55;5.32;;;3.72;;
22711;SDS011;11523;50.390;8.072;2024-01-06T10:19:20;4.97;;;3.67;;
22711;SDS011;11523;50.390;8.072;2024-01-06T10:21:46;6.80;;;3.60;;
22711;SDS011;11523;50.390;8.072;2024-01-06T10:24:12;4.07;;;3.60;;
22711;SDS011;11523;50.390;8.072;2024-01-06T10:26:38;5.35;;;4.10;;
22711;SDS011;11523;50.390;8.072;2024-01-06T10:29:05;7.28;;;3.63;;
22711;SDS011;11523;50.390;8.072;2024-01-06T10:31:31;6.80;;;4.07;;
22711;SDS011;11523;50.390;8.072;2024-01-06T10:33:57;7.20;;;3.45;;
22711;SDS011;11523;50.390;8.072;2024-01-06T10:36:23;6.50;;;4.03;;
22711;SDS011;11523;50.390;8.072;2024-01-06T10:38:49;5.03;;;3.50;;
22711;SDS011;11523;50.390;8.072;2024-01-06T10:41:22;7.32;;;4.18;;
22711;SDS011;11523;50.390;8.072;2024-01-06T10:43:48;4.47;;;3.03;;
22711;SDS011;11523;50.390;8.072;2024-01-06T10:46:16;6.15;;;4.30;;
22711;SDS011;11523;50.390;8.072;2024-01-06T10:48:44;6.78;;;4.07;;
22711;SDS011;11523;50.390;8.072;2024-01-06T10:51:10;4.53;;;3.90;;
22711;SDS011;11523;50.390;8.072;2024-01-06T10:53:37;5.80;;;4.05;;
22711;SDS011;11523;50.390;8.072;2024-01-06T10:56:04;4.85;;;3.90;;
22711;SDS011;11523;50.390;8.072;2024-01-06T10:58:35;6.55;;;4.18;;
22711;SDS011;11523;50.390;8.072;2024-01-06T11:01:07;6.20;;;4.30;;
22711;SDS011;11523;50.390;8.072;2024-01-06T11:03:33;5.72;;;4.60;;
22711;SDS011;11523;50.390;8.072;2024-01-06T11:06:02;6.47;;;4.95;;
22711;SDS011;11523;50.390;8.072;2024-01-06T11:08:28;8.82;;;7.40;;
22711;SDS011;11523;50.390;8.072;2024-01-06T11:10:55;9.18;;;7.68;;
22711;SDS011;11523;50.390;8.072;2024-01-06T11:13:22;14.07;;;9.95;;
22711;SDS011;11523;50.390;8.072;2024-01-06T11:15:52;19.15;;;13.30;;
22711;SDS011;11523;50.390;8.072;2024-01-06T11:18:31;15.82;;;10.82;;
22711;SDS011;11523;50.390;8.072;2024-01-06T11:23:42;15.85;;;12.05;;
22711;SDS011;11523;50.390;8.072;2024-01-06T11:26:07;15.65;;;11.73;;
22711;SDS011;11523;50.390;8.072;2024-01-06T11:28:46;16.13;;;11.95;;
22711;SDS011;11523;50.390;8.072;2024-01-06T11:31:12;15.20;;;10.93;;
22711;SDS011;11523;50.390;8.072;2024-01-06T11:33:45;15.55;;;12.05;;
22711;SDS011;11523;50.390;8.072;2024-01-06T11:36:14;14.73;;;10.65;;
22711;SDS011;11523;50.390;8.072;2024-01-06T11:38:40;16.73;;;12.02;;
22711;SDS011;11523;50.390;8.072;2024-01-06T11:41:07;15.25;;;11.63;;
22711;SDS011;11523;50.390;8.072;2024-01-06T11:43:34;16.90;;;10.95;;
22711;SDS011;11523;50.390;8.072;2024-01-06T11:46:01;15.88;;;10.98;;
22711;SDS011;11523;50.390;8.072;2024-01-06T11:48:34;16.48;;;11.18;;
22711;SDS011;11523;50.390;8.072;2024-01-06T11:51:01;15.23;;;11.35;;
22711;SDS011;11523;50.390;8.072;2024-01-06T11:53:28;15.20;;;10.80;;
22711;SDS011;11523;50.390;8.072;2024-01-06T11:55:55;13.65;;;9.77;;
22711;SDS011;11523;50.390;8.072;2024-01-06T11:58:21;16.25;;;10.07;;
22711;SDS011;11523;50.390;8.072;2024-01-06T12:00:54;14.57;;;10.25;;
22711;SDS011;11523;50.390;8.072;2024-01-06T12:03:21;13.77;;;9.05;;
22711;SDS011;11523;50.390;8.072;2024-01-06T12:05:58;11.95;;;8.82;;
22711;SDS011;11523;50.390;8.072;2024-01-06T12:08:25;13.98;;;9.57;;
22711;SDS011;11523;50.390;8.072;2024-01-06T12:11:01;16.40;;;9.73;;
22711;SDS011;11523;50.390;8.072;2024-01-06T12:13:27;15.02;;;9.45;;
22711;SDS011;11523;50.390;8.072;2024-01-06T12:15:52;13.55;;;10.02;;
22711;SDS011;11523;50.390;8.072;2024-01-06T12:18:18;11.73;;;8.35;;
22711;SDS011;11523;50.390;8.072;2024-01-06T12:20:44;12.65;;;9.18;;
22711;SDS011;11523;50.390;8.072;2024-01-06T12:23:10;12.00;;;8.88;;
22711;SDS011;11523;50.390;8.072;2024-01-06T12:25:36;12.85;;;9.63;;
22711;SDS011;11523;50.390;8.072;2024-01-06T12:28:05;12.43;;;8.52;;
22711;SDS011;11523;50.390;8.072;2024-01-06T12:30:31;12.02;;;8.48;;
22711;SDS011;11523;50.390;8.072;2024-01-06T12:33:00;10.73;;;7.47;;
22711;SDS011;11523;50.390;8.072;2024-01-06T12:35:26;10.52;;;7.88;;
22711;SDS011;11523;50.390;8.072;2024-01-06T12:37:52;10.50;;;7.45;;
22711;SDS011;11523;50.390;8.072;2024-01-06T12:40:19;9.43;;;7.28;;
22711;SDS011;11523;50.390;8.072;2024-01-06T12:42:46;6.85;;;5.60;;
22711;SDS011;11523;50.390;8.072;2024-01-06T12:45:12;6.70;;;5.47;;
22711;SDS011;11523;50.390;8.072;2024-01-06T12:47:40;6.60;;;5.32;;
22711;SDS011;11523;50.390;8.072;2024-01-06T12:50:07;6.78;;;5.55;;
22711;SDS011;11523;50.390;8.072;2024-01-06T12:52:33;6.50;;;5.57;;
22711;SDS011;11523;50.390;8.072;2024-01-06T12:54:59;7.43;;;5.75;;
22711;SDS011;11523;50.390;8.072;2024-01-06T12:57:28;6.60;;;5.63;;
22711;SDS011;11523;50.390;8.072;2024-01-06T12:59:54;7.20;;;5.63;;
22711;SDS011;11523;50.390;8.072;2024-01-06T13:02:20;6.30;;;5.22;;
22711;SDS011;11523;50.390;8.072;2024-01-06T13:04:46;6.78;;;5.90;;
22711;SDS011;11523;50.390;8.072;2024-01-06T13:07:12;6.47;;;5.47;;
22711;SDS011;11523;50.390;8.072;2024-01-06T13:09:38;7.03;;;5.80;;
22711;SDS011;11523;50.390;8.072;2024-01-06T13:12:04;6.07;;;4.80;;
22711;SDS011;11523;50.390;8.072;2024-01-06T13:14:30;7.60;;;5.40;;
22711;SDS011;11523;50.390;8.072;2024-01-06T13:16:56;6.82;;;5.57;;
22711;SDS011;11523;50.390;8.072;2024-01-06T13:19:23;6.93;;;5.95;;
22711;SDS011;11523;50.390;8.072;2024-01-06T13:21:49;8.70;;;6.80;;
22711;SDS011;11523;50.390;8.072;2024-01-06T13:24:15;9.27;;;6.20;;
22711;SDS011;11523;50.390;8.072;2024-01-06T13:26:40;7.03;;;5.40;;
22711;SDS011;11523;50.390;8.072;2024-01-06T13:29:06;6.65;;;5.50;;
22711;SDS011;11523;50.390;8.072;2024-01-06T13:31:32;5.28;;;4.78;;
22711;SDS011;11523;50.390;8.072;2024-01-06T13:33:58;5.65;;;4.88;;
22711;SDS011;11523;50.390;8.072;2024-01-06T13:36:24;7.95;;;5.55;;
22711;SDS011;11523;50.390;8.072;2024-01-06T13:38:50;8.50;;;6.10;;
22711;SDS011;11523;50.390;8.072;2024-01-06T13:41:16;8.23;;;5.68;;
22711;SDS011;11523;50.390;8.072;2024-01-06T13:43:42;6.18;;;5.35;;
22711;SDS011;11523;50.390;8.072;2024-01-06T13:46:08;7.18;;;5.47;;
22711;SDS011;11523;50.390;8.072;2024-01-06T13:48:34;6.32;;;5.03;;
22711;SDS011;11523;50.390;8.072;2024-01-06T13:51:00;7.55;;;5.35;;
22711;SDS011;11523;50.390;8.072;2024-01-06T13:53:26;7.32;;;4.78;;
22711;SDS011;11523;50.390;8.072;2024-01-06T13:55:52;6.43;;;5.00;;
22711;SDS011;11523;50.390;8.072;2024-01-06T13:58:18;5.88;;;5.15;;
22711;SDS011;11523;50.390;8.072;2024-01-06T14:00:44;5.57;;;4.63;;
22711;SDS011;11523;50.390;8.072;2024-01-06T14:03:10;6.80;;;4.90;;
22711;SDS011;11523;50.390;8.072;2024-01-06T14:05:36;5.57;;;4.32;;
22711;SDS011;11523;50.390;8.072;2024-01-06T14:08:02;8.07;;;4.80;;
22711;SDS011;11523;50.390;8.072;2024-01-06T14:10:28;5.47;;;4.82;;
22711;SDS011;11523;50.390;8.072;2024-01-06T14:12:56;9.60;;;5.50;;
22711;SDS011;11523;50.390;8.072;2024-01-06T14:15:22;7.85;;;5.10;;
22711;SDS011;11523;50.390;8.072;2024-01-06T14:17:48;7.65;;;5.10;;
22711;SDS011;11523;50.390;8.072;2024-01-06T14:20:14;6.05;;;5.40;;
22711;SDS011;11523;50.390;8.072;2024-01-06T14:22:42;6.13;;;4.72;;
22711;SDS011;11523;50.390;8.072;2024-01-06T14:25:08;4.38;;;3.95;;
22711;SDS011;11523;50.390;8.072;2024-01-06T14:27:34;5.40;;;4.50;;
22711;SDS011;11523;50.390;8.072;2024-01-06T14:30:00;5.05;;;4.43;;
22711;SDS011;11523;50.390;8.072;2024-01-06T14:32:26;6.53;;;5.10;;
22711;SDS011;11523;50.390;8.072;2024-01-06T14:34:52;6.50;;;5.40;;
22711;SDS011;11523;50.390;8.072;2024-01-06T14:37:18;5.82;;;5.00;;
22711;SDS011;11523;50.390;8.072;2024-01-06T14:39:44;8.70;;;6.38;;
22711;SDS011;11523;50.390;8.072;2024-01-06T14:42:10;7.63;;;6.28;;
22711;SDS011;11523;50.390;8.072;2024-01-06T14:44:36;7.95;;;5.50;;